createdAt,value
2022-10-23T00:01:16.712Z,54.76
2022-10-23T00:03:47.192Z,55.01
2022-10-23T00:06:16.062Z,55.78
2022-10-23T00:08:44.929Z,56.09
2022-10-23T00:11:15.580Z,55.49
2022-10-23T00:13:43.777Z,56.06
2022-10-23T00:16:12.535Z,55.01
2022-10-23T00:18:41.188Z,54.88
2022-10-23T00:21:12.803Z,54.58
2022-10-23T00:23:41.618Z,54.94
2022-10-23T00:26:15.113Z,55.60
2022-10-23T00:28:43.951Z,53.52
2022-10-23T00:31:12.354Z,54.84
2022-10-23T00:33:42.561Z,55.67
2022-10-23T00:36:15.039Z,55.48
2022-10-23T00:38:46.138Z,55.61
2022-10-23T00:41:18.277Z,54.58
2022-10-23T00:44:06.346Z,55.33
2022-10-23T00:46:35.587Z,55.58
2022-10-23T00:49:04.840Z,55.38
2022-10-23T00:51:40.362Z,55.85
2022-10-23T00:54:25.412Z,56.00
2022-10-23T00:56:57.179Z,54.65
2022-10-23T00:59:26.301Z,54.74
2022-10-23T01:01:54.752Z,56.82
2022-10-23T01:04:23.949Z,55.77
2022-10-23T01:07:00.752Z,55.22
2022-10-23T01:09:36.169Z,55.45
2022-10-23T01:12:11.861Z,55.64
2022-10-23T01:14:48.337Z,56.00
2022-10-23T01:17:26.455Z,55.26
2022-10-23T01:20:11.900Z,56.39
2022-10-23T01:23:02.730Z,55.40
2022-10-23T01:25:43.558Z,56.88
2022-10-23T01:28:22.778Z,55.96
2022-10-23T01:30:52.670Z,55.72
2022-10-23T01:33:26.974Z,54.85
2022-10-23T01:36:02.394Z,55.70
2022-10-23T01:38:40.776Z,56.13
2022-10-23T01:41:23.514Z,56.94
2022-10-23T01:43:57.690Z,56.70
2022-10-23T01:46:30.883Z,55.96
2022-10-23T01:49:01.472Z,56.14
2022-10-23T01:51:32.349Z,56.62
2022-10-23T01:54:08.514Z,56.59
2022-10-23T01:56:40.554Z,56.84
2022-10-23T01:59:13.979Z,56.68
2022-10-23T02:01:45.436Z,56.50
2022-10-23T02:04:19.422Z,56.53
2022-10-23T02:06:47.622Z,58.44
2022-10-23T02:09:15.672Z,59.07
2022-10-23T02:11:53.779Z,58.60
2022-10-23T02:14:34.083Z,57.22
2022-10-23T02:17:09.640Z,56.55
2022-10-23T02:19:46.926Z,56.33
2022-10-23T02:22:19.928Z,57.15
2022-10-23T02:24:52.725Z,55.84
2022-10-23T02:27:27.401Z,56.93
2022-10-23T02:30:06.250Z,58.11
2022-10-23T02:32:37.903Z,57.30
2022-10-23T02:35:07.006Z,57.54
2022-10-23T02:37:35.883Z,55.97
2022-10-23T02:40:06.264Z,56.97
2022-10-23T02:42:51.243Z,55.91
2022-10-23T02:45:30.345Z,55.31
2022-10-23T02:48:05.525Z,55.53
2022-10-23T02:50:39.655Z,56.75
2022-10-23T02:53:17.317Z,56.41
2022-10-23T02:56:02.075Z,56.72
2022-10-23T02:58:41.855Z,57.92
2022-10-23T03:01:16.117Z,59.14
2022-10-23T03:03:54.351Z,60.10
2022-10-23T03:06:27.746Z,59.96
2022-10-23T03:09:00.788Z,59.91
2022-10-23T03:11:29.516Z,60.04
2022-10-23T03:13:57.786Z,58.41
2022-10-23T03:16:27.407Z,57.63
2022-10-23T03:18:56.356Z,56.90
2022-10-23T03:21:25.172Z,57.12
2022-10-23T03:23:55.108Z,57.33
2022-10-23T03:26:35.400Z,57.21
2022-10-23T03:29:03.526Z,58.31
2022-10-23T03:31:32.890Z,57.33
2022-10-23T03:34:04.026Z,57.62
2022-10-23T03:36:34.368Z,57.74
2022-10-23T03:39:04.056Z,57.49
2022-10-23T03:41:32.990Z,57.50
2022-10-23T03:44:01.032Z,56.95
2022-10-23T03:46:29.211Z,57.42
2022-10-23T03:48:59.603Z,57.79
2022-10-23T03:51:27.818Z,58.84
2022-10-23T03:53:56.337Z,58.16
2022-10-23T03:56:24.763Z,58.14
2022-10-23T03:58:54.567Z,57.71
2022-10-23T04:01:29.161Z,57.13
2022-10-23T04:03:58.690Z,57.98
2022-10-23T04:06:27.648Z,56.43
2022-10-23T04:08:58.251Z,56.93
2022-10-23T04:11:28.253Z,56.71
2022-10-23T04:13:56.684Z,56.91
2022-10-23T04:16:25.185Z,57.20
2022-10-23T04:18:53.881Z,58.94
2022-10-23T04:21:23.342Z,58.25
2022-10-23T04:23:51.480Z,58.78
2022-10-23T04:26:19.717Z,59.06
2022-10-23T04:28:47.833Z,58.74
2022-10-23T04:31:17.295Z,59.00
2022-10-23T04:33:45.708Z,60.25
2022-10-23T04:36:28.543Z,61.89
2022-10-23T04:38:57.091Z,61.73
2022-10-23T04:41:27.098Z,60.19
2022-10-23T04:43:55.166Z,60.22
2022-10-23T04:46:23.330Z,59.57
2022-10-23T04:48:51.454Z,60.70
2022-10-23T04:51:46.873Z,59.72
2022-10-23T04:54:40.490Z,58.02
2022-10-23T04:57:28.679Z,57.91
2022-10-23T05:00:10.899Z,58.17
2022-10-23T05:02:49.826Z,57.50
2022-10-23T05:05:19.262Z,57.89
2022-10-23T05:08:18.047Z,57.21
2022-10-23T05:11:06.786Z,57.34
2022-10-23T05:13:40.047Z,57.29
2022-10-23T05:16:09.912Z,57.53
2022-10-23T05:18:42.039Z,56.94
2022-10-23T05:21:16.284Z,57.09
2022-10-23T05:23:47.240Z,56.75
2022-10-23T05:26:15.783Z,57.25
2022-10-23T05:28:46.622Z,56.56
2022-10-23T05:31:19.110Z,57.89
2022-10-23T05:33:51.639Z,56.78
2022-10-23T05:36:23.142Z,57.19
2022-10-23T05:38:58.935Z,57.81
2022-10-23T05:41:27.831Z,57.52
2022-10-23T05:43:59.437Z,56.60
2022-10-23T05:46:46.013Z,57.42
2022-10-23T05:49:40.229Z,57.63
2022-10-23T05:52:20.310Z,57.71
2022-10-23T05:55:08.943Z,56.64
2022-10-23T05:57:48.999Z,56.90
2022-10-23T06:00:22.094Z,57.38
2022-10-23T06:03:03.542Z,57.69
2022-10-23T06:08:19.408Z,57.65
2022-10-23T06:10:51.980Z,58.43
2022-10-23T06:13:21.055Z,57.71
2022-10-23T06:15:51.474Z,57.58
2022-10-23T06:18:21.975Z,57.06
2022-10-23T06:20:57.353Z,57.45
2022-10-23T06:23:27.505Z,57.93
2022-10-23T06:26:07.817Z,58.18
2022-10-23T06:28:53.279Z,57.74
2022-10-23T06:31:26.568Z,57.97
2022-10-23T06:33:56.439Z,57.85
2022-10-23T06:36:25.661Z,57.39
2022-10-23T06:42:03.880Z,56.58
2022-10-23T06:44:55.192Z,56.07
2022-10-23T06:47:52.562Z,56.95
2022-10-23T06:50:46.601Z,57.08
2022-10-23T06:53:19.266Z,57.53
2022-10-23T06:55:55.481Z,57.61
2022-10-23T06:58:26.127Z,57.55
2022-10-23T07:01:06.804Z,56.03
2022-10-23T07:03:35.476Z,56.76
2022-10-23T07:06:09.247Z,56.22
2022-10-23T07:08:38.378Z,57.59
2022-10-23T07:11:19.323Z,56.84
2022-10-23T07:13:51.609Z,56.75
2022-10-23T07:16:23.555Z,56.80
2022-10-23T07:18:58.796Z,57.14
2022-10-23T07:21:30.937Z,57.40
2022-10-23T07:24:15.498Z,57.85
2022-10-23T07:26:44.686Z,57.59
2022-10-23T07:29:14.632Z,56.92
2022-10-23T07:31:43.771Z,57.09
2022-10-23T07:34:29.951Z,57.57
2022-10-23T07:37:14.991Z,57.44
2022-10-23T07:39:43.275Z,57.53
2022-10-23T07:42:12.040Z,57.42
2022-10-23T07:44:43.073Z,56.92
2022-10-23T07:47:11.223Z,57.27
2022-10-23T07:49:43.325Z,56.86
2022-10-23T07:52:11.451Z,57.07
2022-10-23T07:54:59.347Z,56.21
2022-10-23T07:57:31.291Z,55.74
2022-10-23T08:00:12.622Z,56.35
2022-10-23T08:02:53.187Z,55.65
2022-10-23T08:05:21.803Z,55.73
2022-10-23T08:07:56.288Z,56.48
2022-10-23T08:10:24.481Z,57.00
2022-10-23T08:12:52.490Z,55.97
2022-10-23T08:15:27.254Z,57.00
2022-10-23T08:18:01.682Z,55.99
2022-10-23T08:20:48.614Z,56.56
2022-10-23T08:23:19.290Z,57.15
2022-10-23T08:25:49.455Z,56.52
2022-10-23T08:28:19.104Z,56.80
2022-10-23T08:30:56.840Z,56.20
2022-10-23T08:33:25.537Z,56.91
2022-10-23T08:35:54.179Z,56.14
2022-10-23T08:38:29.891Z,56.33
2022-10-23T08:41:00.330Z,55.98
2022-10-23T08:43:55.801Z,56.98
2022-10-23T08:46:41.052Z,56.66
2022-10-23T08:49:37.669Z,57.18
2022-10-23T08:52:16.124Z,56.89
2022-10-23T08:54:57.487Z,57.00
2022-10-23T08:57:33.454Z,56.98
2022-10-23T09:00:04.895Z,56.68
2022-10-23T09:02:39.540Z,56.69
2022-10-23T09:05:14.937Z,56.45
2022-10-23T09:08:01.060Z,57.24
2022-10-23T09:10:57.589Z,57.37
2022-10-23T09:14:00.925Z,57.21
2022-10-23T09:16:42.718Z,58.08
2022-10-23T09:19:17.142Z,57.43
2022-10-23T09:21:49.816Z,57.29
2022-10-23T09:24:19.227Z,57.09
2022-10-23T09:26:49.772Z,57.40
2022-10-23T09:29:24.294Z,57.26
2022-10-23T09:31:54.467Z,57.59
2022-10-23T09:34:25.654Z,57.17
2022-10-23T09:39:32.016Z,56.88
2022-10-23T09:42:02.462Z,57.32
2022-10-23T09:44:32.396Z,58.08
2022-10-23T09:47:02.398Z,57.32
2022-10-23T09:49:33.808Z,57.67
2022-10-23T09:52:04.351Z,58.00
2022-10-23T09:54:34.742Z,57.52
2022-10-23T09:57:16.386Z,56.73
2022-10-23T09:59:44.825Z,57.34
2022-10-23T10:02:27.234Z,57.00
2022-10-23T10:05:24.824Z,56.65
2022-10-23T10:07:59.926Z,57.51
2022-10-23T10:10:32.203Z,57.05
2022-10-23T10:13:11.958Z,57.27
2022-10-23T10:15:51.659Z,57.26
2022-10-23T10:18:25.677Z,57.86
2022-10-23T10:21:04.914Z,56.69
2022-10-23T10:23:38.752Z,58.16
2022-10-23T10:26:21.050Z,57.67
2022-10-23T10:29:00.325Z,56.73
2022-10-23T10:31:39.908Z,57.67
2022-10-23T10:34:16.399Z,57.34
2022-10-23T10:36:52.248Z,57.65
2022-10-23T10:39:33.168Z,58.08
2022-10-23T10:42:19.824Z,58.02
2022-10-23T10:45:20.291Z,58.25
2022-10-23T10:48:01.544Z,58.49
2022-10-23T10:50:44.876Z,58.14
2022-10-23T10:53:33.592Z,58.31
2022-10-23T10:56:05.422Z,56.83
2022-10-23T10:58:41.200Z,57.26
2022-10-23T11:01:15.955Z,58.02
2022-10-23T11:03:52.130Z,59.22
2022-10-23T11:06:24.389Z,59.16
2022-10-23T11:08:57.876Z,58.91
2022-10-23T11:11:37.199Z,60.26
2022-10-23T11:14:05.450Z,60.22
2022-10-23T11:16:37.183Z,60.47
2022-10-23T11:19:13.005Z,60.83
2022-10-23T11:21:46.158Z,60.45
2022-10-23T11:24:58.203Z,60.13
2022-10-23T11:28:09.949Z,59.37
2022-10-23T11:30:50.673Z,59.65
2022-10-23T11:33:53.566Z,61.05
2022-10-23T11:36:35.767Z,60.59
2022-10-23T11:39:18.722Z,60.91
2022-10-23T11:41:55.723Z,60.60
2022-10-23T11:44:40.154Z,60.90
2022-10-23T11:47:39.526Z,59.52
2022-10-23T11:50:16.702Z,59.63
2022-10-23T11:53:12.944Z,59.75
2022-10-23T11:55:56.299Z,58.82
2022-10-23T11:58:32.532Z,59.19
2022-10-23T12:01:06.911Z,60.10
2022-10-23T12:03:44.355Z,60.61
2022-10-23T12:06:21.892Z,60.20
2022-10-23T12:08:54.471Z,60.94
2022-10-23T12:11:41.249Z,60.56
2022-10-23T12:14:29.631Z,60.44
2022-10-23T12:17:01.074Z,59.46
2022-10-23T12:19:31.386Z,59.34
2022-10-23T12:22:02.544Z,59.30
2022-10-23T12:24:52.489Z,60.32
2022-10-23T12:27:30.631Z,60.13
2022-10-23T12:30:15.612Z,59.64
2022-10-23T12:33:06.477Z,60.04
2022-10-23T12:35:54.772Z,58.76
2022-10-23T12:38:26.383Z,58.96
2022-10-23T12:40:56.334Z,58.46
2022-10-23T12:43:28.923Z,58.94
2022-10-23T12:46:04.091Z,60.12
2022-10-23T12:48:35.451Z,59.97
2022-10-23T12:51:03.499Z,60.01
2022-10-23T12:53:31.557Z,59.76
2022-10-23T12:56:04.391Z,59.57
2022-10-23T12:58:34.407Z,60.18
2022-10-23T13:01:08.489Z,60.03
2022-10-23T13:03:39.295Z,59.99
2022-10-23T13:06:08.198Z,59.93
2022-10-23T13:08:41.986Z,59.71
2022-10-23T13:11:29.798Z,59.66
2022-10-23T13:14:01.888Z,60.46
2022-10-23T13:16:31.594Z,59.79
2022-10-23T13:19:00.081Z,59.33
2022-10-23T13:21:30.268Z,60.49
2022-10-23T13:23:58.714Z,60.15
2022-10-23T13:26:34.679Z,59.47
2022-10-23T13:29:07.391Z,60.58
2022-10-23T13:31:39.024Z,60.65
2022-10-23T13:34:20.011Z,59.47
2022-10-23T13:36:53.857Z,60.44
2022-10-23T13:39:25.619Z,59.58
2022-10-23T13:41:53.704Z,60.31
2022-10-23T13:44:23.752Z,60.29
2022-10-23T13:46:53.599Z,59.93
2022-10-23T13:49:21.822Z,59.89
2022-10-23T13:51:53.312Z,59.73
2022-10-23T13:54:23.461Z,60.31
2022-10-23T13:56:51.944Z,61.06
2022-10-23T13:59:19.980Z,59.72
2022-10-23T14:01:50.170Z,59.87
2022-10-23T14:04:20.217Z,59.63
2022-10-23T14:06:48.574Z,60.23
2022-10-23T14:09:19.636Z,59.78
2022-10-23T14:11:48.076Z,60.33
2022-10-23T14:14:18.528Z,59.42
2022-10-23T14:16:46.782Z,59.48
2022-10-23T14:19:14.778Z,60.53
2022-10-23T14:21:44.191Z,60.99
2022-10-23T14:24:12.288Z,60.67
2022-10-23T14:26:40.283Z,60.50
2022-10-23T14:29:11.419Z,60.98
2022-10-23T14:31:42.059Z,60.07
2022-10-23T14:34:10.088Z,60.39
2022-10-23T14:36:49.501Z,60.92
2022-10-23T14:39:20.017Z,59.97
2022-10-23T14:41:52.311Z,60.58
2022-10-23T14:44:22.682Z,59.85
2022-10-23T14:46:50.714Z,61.00
2022-10-23T14:49:18.817Z,60.21
2022-10-23T14:51:46.788Z,59.17
2022-10-23T14:54:15.775Z,59.15
2022-10-23T14:56:45.103Z,59.13
2022-10-23T14:59:15.146Z,59.54
2022-10-23T15:01:48.183Z,60.00
2022-10-23T15:04:16.819Z,60.05
2022-10-23T15:06:46.328Z,61.30
2022-10-23T15:09:14.917Z,60.48
2022-10-23T15:11:42.950Z,60.87
2022-10-23T15:14:12.388Z,60.62
2022-10-23T15:16:42.226Z,61.45
2022-10-23T15:19:15.114Z,60.73
2022-10-23T15:21:46.895Z,60.82
2022-10-23T15:24:17.648Z,61.39
2022-10-23T15:26:46.119Z,61.06
2022-10-23T15:29:16.378Z,60.59
2022-10-23T15:31:54.372Z,60.16
2022-10-23T15:34:24.858Z,59.09
2022-10-23T15:36:53.966Z,60.10
2022-10-23T15:39:24.192Z,59.17
2022-10-23T15:41:54.204Z,59.70
2022-10-23T15:44:25.687Z,58.92
2022-10-23T15:46:53.686Z,59.20
2022-10-23T15:49:21.720Z,59.93
2022-10-23T15:51:49.866Z,59.73
2022-10-23T15:54:22.027Z,58.95
2022-10-23T15:56:52.671Z,58.45
2022-10-23T15:59:25.026Z,59.83
2022-10-23T16:01:53.789Z,60.45
2022-10-23T16:04:22.639Z,59.59
2022-10-23T16:06:50.942Z,59.02
2022-10-23T16:09:19.002Z,59.20
2022-10-23T16:11:46.955Z,59.18
2022-10-23T16:14:17.649Z,59.54
2022-10-23T16:16:47.034Z,60.28
2022-10-23T16:19:15.369Z,60.06
2022-10-23T16:21:43.603Z,58.91
2022-10-23T16:24:11.831Z,60.00
2022-10-23T16:26:40.064Z,60.08
2022-10-23T16:29:09.541Z,59.95
2022-10-23T16:31:37.910Z,58.91
2022-10-23T16:34:07.974Z,58.79
2022-10-23T16:36:39.147Z,59.43
2022-10-23T16:39:11.460Z,59.17
2022-10-23T16:41:58.051Z,58.88
2022-10-23T16:44:32.976Z,59.46
2022-10-23T16:47:04.488Z,58.40
2022-10-23T16:49:36.100Z,59.29
2022-10-23T16:52:04.102Z,59.15
2022-10-23T16:54:32.369Z,59.27
2022-10-23T16:57:00.407Z,59.75
2022-10-23T16:59:28.523Z,59.46
2022-10-23T17:01:56.629Z,59.97
2022-10-23T17:04:24.844Z,59.80
2022-10-23T17:06:54.260Z,60.44
2022-10-23T17:09:23.605Z,60.03
2022-10-23T17:11:53.886Z,59.91
2022-10-23T17:14:25.252Z,60.13
2022-10-23T17:16:54.262Z,60.43
2022-10-23T17:19:43.654Z,59.88
2022-10-23T17:22:14.679Z,59.77
2022-10-23T17:24:46.139Z,59.66
2022-10-23T17:27:17.455Z,59.54
2022-10-23T17:29:45.529Z,59.76
2022-10-23T17:32:13.630Z,59.36
2022-10-23T17:34:41.942Z,59.56
2022-10-23T17:37:10.234Z,60.26
2022-10-23T17:39:41.369Z,59.66
2022-10-23T17:42:10.565Z,59.36
2022-10-23T17:44:38.568Z,59.65
2022-10-23T17:47:06.914Z,60.64
2022-10-23T17:49:35.330Z,59.42
2022-10-23T17:52:03.367Z,58.93
2022-10-23T17:54:31.467Z,60.35
2022-10-23T17:57:00.894Z,60.31
2022-10-23T17:59:29.240Z,59.97
2022-10-23T18:01:59.708Z,58.83
2022-10-23T18:04:28.482Z,59.31
2022-10-23T18:06:59.660Z,60.38
2022-10-23T18:09:27.848Z,59.57
2022-10-23T18:11:56.409Z,59.54
2022-10-23T18:14:29.497Z,58.60
2022-10-23T18:16:57.982Z,58.93
2022-10-23T18:19:26.215Z,58.64
2022-10-23T18:21:54.424Z,59.24
2022-10-23T18:24:26.677Z,59.39
2022-10-23T18:26:57.612Z,59.39
2022-10-23T18:29:26.981Z,59.32
2022-10-23T18:31:56.714Z,60.06
2022-10-23T18:34:26.295Z,60.69
2022-10-23T18:36:55.791Z,60.74
2022-10-23T18:39:25.807Z,59.94
2022-10-23T18:41:55.592Z,59.57
2022-10-23T18:44:25.516Z,60.26
2022-10-23T18:46:56.146Z,60.11
2022-10-23T18:49:24.945Z,59.36
2022-10-23T18:51:53.054Z,59.96
2022-10-23T18:54:22.571Z,59.33
2022-10-23T18:56:51.135Z,60.16
2022-10-23T18:59:21.396Z,60.55
2022-10-23T19:01:50.058Z,59.68
2022-10-23T19:04:20.555Z,60.82
2022-10-23T19:06:50.041Z,60.57
2022-10-23T19:09:19.091Z,60.81
2022-10-23T19:11:48.281Z,60.66
2022-10-23T19:14:16.599Z,60.46
2022-10-23T19:16:54.430Z,59.25
2022-10-23T19:19:28.360Z,59.55
2022-10-23T19:21:59.628Z,59.62
2022-10-23T19:24:33.671Z,59.30
2022-10-23T19:27:03.217Z,59.61
2022-10-23T19:29:32.388Z,59.83
2022-10-23T19:32:00.608Z,60.70
2022-10-23T19:34:29.996Z,59.98
2022-10-23T19:36:58.028Z,60.55
2022-10-23T19:39:26.654Z,60.45
2022-10-23T19:41:55.561Z,60.40
2022-10-23T19:44:23.542Z,60.40
2022-10-23T19:46:52.014Z,60.04
2022-10-23T19:49:20.476Z,60.14
2022-10-23T19:51:54.001Z,59.20
2022-10-23T19:54:22.331Z,59.94
2022-10-23T19:56:50.556Z,59.53
2022-10-23T19:59:20.406Z,59.77
2022-10-23T20:01:49.372Z,59.70
2022-10-23T20:04:19.092Z,60.33
2022-10-23T20:06:48.139Z,59.56
2022-10-23T20:09:17.610Z,59.23
2022-10-23T20:11:45.755Z,59.98
2022-10-23T20:14:14.479Z,59.03
2022-10-23T20:16:45.822Z,60.16
2022-10-23T20:21:45.720Z,60.16
2022-10-23T20:24:17.532Z,60.52
2022-10-23T20:26:47.460Z,60.35
2022-10-23T20:29:15.923Z,59.67
2022-10-23T20:31:44.534Z,60.47
2022-10-23T20:34:13.037Z,60.50
2022-10-23T20:36:45.628Z,59.59
2022-10-23T20:39:19.545Z,60.41
2022-10-23T20:41:48.507Z,60.27
2022-10-23T20:44:18.722Z,59.71
2022-10-23T20:46:46.988Z,59.29
2022-10-23T20:49:15.387Z,59.31
2022-10-23T20:51:46.583Z,58.59
2022-10-23T20:54:14.743Z,58.68
2022-10-23T20:56:44.229Z,58.79
2022-10-23T20:59:14.446Z,59.32
2022-10-23T21:01:44.272Z,59.48
2022-10-23T21:04:13.560Z,59.59
2022-10-23T21:06:57.729Z,59.59
2022-10-23T21:09:31.436Z,58.61
2022-10-23T21:12:00.901Z,58.54
2022-10-23T21:14:29.539Z,59.81
2022-10-23T21:16:57.577Z,59.47
2022-10-23T21:19:25.581Z,59.96
2022-10-23T21:21:53.833Z,59.67
2022-10-23T21:24:22.083Z,59.79
2022-10-23T21:26:50.142Z,60.15
2022-10-23T21:29:20.452Z,60.12
2022-10-23T21:31:53.921Z,60.67
2022-10-23T21:34:22.291Z,60.45
2022-10-23T21:39:38.179Z,60.11
2022-10-23T21:42:06.220Z,61.27
2022-10-23T21:44:35.504Z,61.29
2022-10-23T21:47:03.458Z,60.48
2022-10-23T21:49:31.422Z,61.16
2022-10-23T21:51:59.392Z,60.95
2022-10-23T21:54:27.328Z,60.79
2022-10-23T21:56:55.374Z,59.97
2022-10-23T21:59:26.685Z,59.99
2022-10-23T22:01:58.433Z,59.88
2022-10-23T22:04:26.491Z,60.01
2022-10-23T22:06:54.528Z,59.61
2022-10-23T22:09:23.284Z,59.53
2022-10-23T22:11:52.259Z,59.38
2022-10-23T22:14:20.616Z,59.73
2022-10-23T22:16:49.475Z,60.39
2022-10-23T22:19:20.023Z,60.63
2022-10-23T22:21:48.795Z,61.30
2022-10-23T22:24:17.547Z,60.06
2022-10-23T22:26:48.513Z,60.27
2022-10-23T22:29:17.978Z,60.32
2022-10-23T22:31:48.946Z,59.71
2022-10-23T22:34:47.803Z,60.23
2022-10-23T22:37:11.941Z,61.82
2022-10-23T22:39:40.250Z,62.32
2022-10-23T22:42:08.607Z,61.32
2022-10-23T22:44:36.577Z,62.78
2022-10-23T22:47:04.864Z,61.19
2022-10-23T22:49:34.148Z,60.83
2022-10-23T22:52:02.144Z,61.17
2022-10-23T22:54:31.307Z,59.91
2022-10-23T22:56:59.316Z,61.50
2022-10-23T22:59:27.648Z,61.29
2022-10-23T23:01:55.893Z,60.97
2022-10-23T23:04:39.706Z,61.14
2022-10-23T23:07:10.651Z,60.23
2022-10-23T23:09:39.565Z,60.42
2022-10-23T23:12:08.670Z,59.01
2022-10-23T23:14:37.008Z,58.53
2022-10-23T23:17:05.293Z,59.09
2022-10-23T23:19:33.312Z,59.28
2022-10-23T23:22:02.194Z,59.08
2022-10-23T23:24:32.142Z,58.90
2022-10-23T23:27:00.268Z,58.86
2022-10-23T23:29:29.561Z,59.27
2022-10-23T23:31:57.690Z,59.38
2022-10-23T23:34:25.752Z,59.98
2022-10-23T23:36:53.831Z,60.17
2022-10-23T23:39:21.894Z,59.87
2022-10-23T23:41:51.418Z,60.37
2022-10-23T23:44:19.347Z,59.52
2022-10-23T23:46:47.347Z,59.08
2022-10-23T23:49:15.311Z,59.75
2022-10-23T23:51:43.446Z,59.55
2022-10-23T23:54:11.379Z,59.53
2022-10-23T23:56:39.420Z,60.28
2022-10-23T23:59:08.970Z,59.62
